sensor_id;sensor_type;location;lat;lon;timestamp;P1;durP1;ratioP1;P2;durP2;ratioP2
7142;SDS011;3613;48.902;9.204;2023-09-30T00:01:02;4.80;;;2.87;;
7142;SDS011;3613;48.902;9.204;2023-09-30T00:03:28;3.07;;;2.00;;
7142;SDS011;3613;48.902;9.204;2023-09-30T00:05:54;4.07;;;2.20;;
7142;SDS011;3613;48.902;9.204;2023-09-30T00:08:19;6.37;;;2.20;;
7142;SDS011;3613;48.902;9.204;2023-09-30T00:10:45;3.60;;;2.03;;
7142;SDS011;3613;48.902;9.204;2023-09-30T00:13:11;3.07;;;2.30;;
7142;SDS011;3613;48.902;9.204;2023-09-30T00:15:39;2.50;;;2.23;;
7142;SDS011;3613;48.902;9.204;2023-09-30T00:18:06;4.40;;;2.03;;
7142;SDS011;3613;48.902;9.204;2023-09-30T00:20:31;4.73;;;2.20;;
7142;SDS011;3613;48.902;9.204;2023-09-30T00:22:59;3.83;;;1.80;;
7142;SDS011;3613;48.902;9.204;2023-09-30T00:25:25;4.70;;;2.00;;
7142;SDS011;3613;48.902;9.204;2023-09-30T00:27:50;2.93;;;1.90;;
7142;SDS011;3613;48.902;9.204;2023-09-30T00:30:16;2.90;;;2.20;;
7142;SDS011;3613;48.902;9.204;2023-09-30T00:32:42;4.20;;;2.33;;
7142;SDS011;3613;48.902;9.204;2023-09-30T00:35:10;4.40;;;2.60;;
7142;SDS011;3613;48.902;9.204;2023-09-30T00:37:37;4.17;;;2.23;;
7142;SDS011;3613;48.902;9.204;2023-09-30T00:40:03;3.73;;;2.20;;
7142;SDS011;3613;48.902;9.204;2023-09-30T00:42:29;2.80;;;2.03;;
7142;SDS011;3613;48.902;9.204;2023-09-30T00:44:59;2.53;;;2.30;;
7142;SDS011;3613;48.902;9.204;2023-09-30T00:47:25;4.33;;;2.00;;
7142;SDS011;3613;48.902;9.204;2023-09-30T00:49:51;3.70;;;2.40;;
7142;SDS011;3613;48.902;9.204;2023-09-30T00:52:18;4.53;;;2.50;;
7142;SDS011;3613;48.902;9.204;2023-09-30T00:54:47;3.97;;;2.50;;
7142;SDS011;3613;48.902;9.204;2023-09-30T00:57:14;3.43;;;2.10;;
7142;SDS011;3613;48.902;9.204;2023-09-30T00:59:41;2.50;;;2.00;;
7142;SDS011;3613;48.902;9.204;2023-09-30T01:02:09;3.90;;;2.60;;
7142;SDS011;3613;48.902;9.204;2023-09-30T01:04:36;3.50;;;2.67;;
7142;SDS011;3613;48.902;9.204;2023-09-30T01:07:05;3.80;;;2.37;;
7142;SDS011;3613;48.902;9.204;2023-09-30T01:09:33;4.57;;;2.57;;
7142;SDS011;3613;48.902;9.204;2023-09-30T01:12:01;6.13;;;2.47;;
7142;SDS011;3613;48.902;9.204;2023-09-30T01:14:29;3.10;;;2.23;;
7142;SDS011;3613;48.902;9.204;2023-09-30T01:17:02;3.93;;;2.43;;
7142;SDS011;3613;48.902;9.204;2023-09-30T01:19:33;4.20;;;2.60;;
7142;SDS011;3613;48.902;9.204;2023-09-30T01:22:01;5.50;;;2.73;;
7142;SDS011;3613;48.902;9.204;2023-09-30T01:24:30;5.10;;;2.83;;
7142;SDS011;3613;48.902;9.204;2023-09-30T01:26:56;4.07;;;3.10;;
7142;SDS011;3613;48.902;9.204;2023-09-30T01:29:22;4.77;;;2.60;;
7142;SDS011;3613;48.902;9.204;2023-09-30T01:31:48;2.97;;;2.40;;
7142;SDS011;3613;48.902;9.204;2023-09-30T01:34:15;5.23;;;2.80;;
7142;SDS011;3613;48.902;9.204;2023-09-30T01:36:41;4.17;;;3.00;;
7142;SDS011;3613;48.902;9.204;2023-09-30T01:39:10;6.83;;;3.20;;
7142;SDS011;3613;48.902;9.204;2023-09-30T01:41:36;5.03;;;3.00;;
7142;SDS011;3613;48.902;9.204;2023-09-30T01:44:02;4.87;;;2.70;;
7142;SDS011;3613;48.902;9.204;2023-09-30T01:46:31;4.33;;;3.10;;
7142;SDS011;3613;48.902;9.204;2023-09-30T01:48:57;3.73;;;3.20;;
7142;SDS011;3613;48.902;9.204;2023-09-30T01:51:22;6.07;;;3.40;;
7142;SDS011;3613;48.902;9.204;2023-09-30T01:53:48;8.37;;;3.50;;
7142;SDS011;3613;48.902;9.204;2023-09-30T01:56:14;4.10;;;2.83;;
7142;SDS011;3613;48.902;9.204;2023-09-30T01:58:40;6.27;;;3.47;;
7142;SDS011;3613;48.902;9.204;2023-09-30T02:01:06;4.17;;;3.10;;
7142;SDS011;3613;48.902;9.204;2023-09-30T02:03:31;4.57;;;3.03;;
7142;SDS011;3613;48.902;9.204;2023-09-30T02:06:01;4.70;;;3.40;;
7142;SDS011;3613;48.902;9.204;2023-09-30T02:08:28;5.73;;;3.27;;
7142;SDS011;3613;48.902;9.204;2023-09-30T02:10:54;6.43;;;3.00;;
7142;SDS011;3613;48.902;9.204;2023-09-30T02:13:22;5.13;;;3.23;;
7142;SDS011;3613;48.902;9.204;2023-09-30T02:15:48;7.27;;;3.80;;
7142;SDS011;3613;48.902;9.204;2023-09-30T02:18:13;7.27;;;3.40;;
7142;SDS011;3613;48.902;9.204;2023-09-30T02:20:41;6.30;;;3.43;;
7142;SDS011;3613;48.902;9.204;2023-09-30T02:23:10;4.37;;;3.50;;
7142;SDS011;3613;48.902;9.204;2023-09-30T02:25:36;6.00;;;3.70;;
7142;SDS011;3613;48.902;9.204;2023-09-30T02:28:02;8.03;;;4.30;;
7142;SDS011;3613;48.902;9.204;2023-09-30T02:30:31;8.77;;;3.83;;
7142;SDS011;3613;48.902;9.204;2023-09-30T02:32:56;6.30;;;3.80;;
7142;SDS011;3613;48.902;9.204;2023-09-30T02:35:27;7.40;;;3.87;;
7142;SDS011;3613;48.902;9.204;2023-09-30T02:37:53;7.67;;;4.10;;
7142;SDS011;3613;48.902;9.204;2023-09-30T02:40:19;7.13;;;4.03;;
7142;SDS011;3613;48.902;9.204;2023-09-30T02:42:45;5.67;;;3.97;;
7142;SDS011;3613;48.902;9.204;2023-09-30T02:45:11;7.27;;;3.97;;
7142;SDS011;3613;48.902;9.204;2023-09-30T02:47:38;7.73;;;4.77;;
7142;SDS011;3613;48.902;9.204;2023-09-30T02:50:05;8.00;;;4.13;;
7142;SDS011;3613;48.902;9.204;2023-09-30T02:52:33;7.40;;;4.03;;
7142;SDS011;3613;48.902;9.204;2023-09-30T02:54:59;7.97;;;4.30;;
7142;SDS011;3613;48.902;9.204;2023-09-30T02:57:27;7.90;;;4.53;;
7142;SDS011;3613;48.902;9.204;2023-09-30T02:59:53;6.77;;;4.97;;
7142;SDS011;3613;48.902;9.204;2023-09-30T03:02:21;9.63;;;4.70;;
7142;SDS011;3613;48.902;9.204;2023-09-30T03:04:47;5.57;;;4.00;;
7142;SDS011;3613;48.902;9.204;2023-09-30T03:07:18;7.43;;;4.30;;
7142;SDS011;3613;48.902;9.204;2023-09-30T03:09:44;9.43;;;5.17;;
7142;SDS011;3613;48.902;9.204;2023-09-30T03:12:11;8.30;;;5.23;;
7142;SDS011;3613;48.902;9.204;2023-09-30T03:14:39;7.87;;;5.13;;
7142;SDS011;3613;48.902;9.204;2023-09-30T03:17:05;9.93;;;4.97;;
7142;SDS011;3613;48.902;9.204;2023-09-30T03:19:31;9.50;;;5.70;;
7142;SDS011;3613;48.902;9.204;2023-09-30T03:21:56;9.93;;;5.23;;
7142;SDS011;3613;48.902;9.204;2023-09-30T03:24:24;9.07;;;4.63;;
7142;SDS011;3613;48.902;9.204;2023-09-30T03:26:49;9.90;;;5.00;;
7142;SDS011;3613;48.902;9.204;2023-09-30T03:29:18;8.63;;;4.80;;
7142;SDS011;3613;48.902;9.204;2023-09-30T03:31:44;10.33;;;4.97;;
7142;SDS011;3613;48.902;9.204;2023-09-30T03:34:10;7.13;;;5.13;;
7142;SDS011;3613;48.902;9.204;2023-09-30T03:36:39;9.67;;;5.50;;
7142;SDS011;3613;48.902;9.204;2023-09-30T03:39:06;8.87;;;5.50;;
7142;SDS011;3613;48.902;9.204;2023-09-30T03:41:33;9.37;;;5.23;;
7142;SDS011;3613;48.902;9.204;2023-09-30T03:44:01;6.93;;;4.87;;
7142;SDS011;3613;48.902;9.204;2023-09-30T03:46:29;9.10;;;5.00;;
7142;SDS011;3613;48.902;9.204;2023-09-30T03:48:55;10.60;;;5.50;;
7142;SDS011;3613;48.902;9.204;2023-09-30T03:51:21;8.10;;;5.20;;
7142;SDS011;3613;48.902;9.204;2023-09-30T03:53:50;7.70;;;5.03;;
7142;SDS011;3613;48.902;9.204;2023-09-30T03:56:20;8.07;;;4.77;;
7142;SDS011;3613;48.902;9.204;2023-09-30T03:58:47;7.43;;;4.80;;
7142;SDS011;3613;48.902;9.204;2023-09-30T04:01:13;7.27;;;5.00;;
7142;SDS011;3613;48.902;9.204;2023-09-30T04:03:39;9.87;;;5.40;;
7142;SDS011;3613;48.902;9.204;2023-09-30T04:06:08;9.73;;;5.10;;
7142;SDS011;3613;48.902;9.204;2023-09-30T04:08:34;11.40;;;4.97;;
7142;SDS011;3613;48.902;9.204;2023-09-30T04:11:00;9.17;;;3.93;;
7142;SDS011;3613;48.902;9.204;2023-09-30T04:13:28;7.40;;;3.93;;
7142;SDS011;3613;48.902;9.204;2023-09-30T04:15:58;8.50;;;5.00;;
7142;SDS011;3613;48.902;9.204;2023-09-30T04:18:24;5.97;;;4.27;;
7142;SDS011;3613;48.902;9.204;2023-09-30T04:20:54;9.23;;;4.50;;
7142;SDS011;3613;48.902;9.204;2023-09-30T04:23:25;8.20;;;5.23;;
7142;SDS011;3613;48.902;9.204;2023-09-30T04:25:52;7.47;;;4.50;;
7142;SDS011;3613;48.902;9.204;2023-09-30T04:28:18;6.77;;;4.00;;
7142;SDS011;3613;48.902;9.204;2023-09-30T04:30:46;8.43;;;4.40;;
7142;SDS011;3613;48.902;9.204;2023-09-30T04:33:14;10.23;;;5.50;;
7142;SDS011;3613;48.902;9.204;2023-09-30T04:35:45;8.10;;;5.00;;
7142;SDS011;3613;48.902;9.204;2023-09-30T04:38:11;7.90;;;4.00;;
7142;SDS011;3613;48.902;9.204;2023-09-30T04:40:37;7.93;;;4.53;;
7142;SDS011;3613;48.902;9.204;2023-09-30T04:43:04;8.07;;;4.90;;
7142;SDS011;3613;48.902;9.204;2023-09-30T04:45:30;7.53;;;4.50;;
7142;SDS011;3613;48.902;9.204;2023-09-30T04:47:58;5.73;;;4.33;;
7142;SDS011;3613;48.902;9.204;2023-09-30T04:50:24;9.03;;;4.83;;
7142;SDS011;3613;48.902;9.204;2023-09-30T04:52:53;8.70;;;4.40;;
7142;SDS011;3613;48.902;9.204;2023-09-30T04:55:19;4.93;;;4.00;;
7142;SDS011;3613;48.902;9.204;2023-09-30T04:57:45;7.90;;;5.03;;
7142;SDS011;3613;48.902;9.204;2023-09-30T05:00:17;5.63;;;3.87;;
7142;SDS011;3613;48.902;9.204;2023-09-30T05:02:49;6.90;;;4.37;;
7142;SDS011;3613;48.902;9.204;2023-09-30T05:05:19;6.63;;;4.60;;
7142;SDS011;3613;48.902;9.204;2023-09-30T05:07:45;5.30;;;4.20;;
7142;SDS011;3613;48.902;9.204;2023-09-30T05:10:12;6.63;;;4.10;;
7142;SDS011;3613;48.902;9.204;2023-09-30T05:12:40;5.40;;;4.00;;
7142;SDS011;3613;48.902;9.204;2023-09-30T05:15:10;7.00;;;3.97;;
7142;SDS011;3613;48.902;9.204;2023-09-30T05:17:40;8.07;;;4.80;;
7142;SDS011;3613;48.902;9.204;2023-09-30T05:20:11;9.30;;;5.30;;
7142;SDS011;3613;48.902;9.204;2023-09-30T05:22:40;7.20;;;4.60;;
7142;SDS011;3613;48.902;9.204;2023-09-30T05:25:08;10.97;;;5.50;;
7142;SDS011;3613;48.902;9.204;2023-09-30T05:27:36;8.80;;;4.90;;
7142;SDS011;3613;48.902;9.204;2023-09-30T05:30:02;6.90;;;5.20;;
7142;SDS011;3613;48.902;9.204;2023-09-30T05:32:31;7.83;;;5.30;;
7142;SDS011;3613;48.902;9.204;2023-09-30T05:34:59;7.33;;;5.03;;
7142;SDS011;3613;48.902;9.204;2023-09-30T05:37:28;9.03;;;5.27;;
7142;SDS011;3613;48.902;9.204;2023-09-30T05:39:53;6.87;;;4.87;;
7142;SDS011;3613;48.902;9.204;2023-09-30T05:42:19;8.67;;;5.10;;
7142;SDS011;3613;48.902;9.204;2023-09-30T05:44:44;8.87;;;5.57;;
7142;SDS011;3613;48.902;9.204;2023-09-30T05:47:11;7.50;;;5.60;;
7142;SDS011;3613;48.902;9.204;2023-09-30T05:49:39;7.53;;;4.90;;
7142;SDS011;3613;48.902;9.204;2023-09-30T05:52:07;9.00;;;4.83;;
7142;SDS011;3613;48.902;9.204;2023-09-30T05:54:32;9.30;;;5.57;;
7142;SDS011;3613;48.902;9.204;2023-09-30T05:56:58;7.47;;;5.10;;
7142;SDS011;3613;48.902;9.204;2023-09-30T05:59:28;7.93;;;4.87;;
7142;SDS011;3613;48.902;9.204;2023-09-30T06:01:53;10.27;;;5.87;;
7142;SDS011;3613;48.902;9.204;2023-09-30T06:04:19;9.57;;;5.97;;
7142;SDS011;3613;48.902;9.204;2023-09-30T06:06:46;8.43;;;5.73;;
7142;SDS011;3613;48.902;9.204;2023-09-30T06:09:12;9.20;;;5.63;;
7142;SDS011;3613;48.902;9.204;2023-09-30T06:11:40;9.23;;;5.17;;
7142;SDS011;3613;48.902;9.204;2023-09-30T06:14:07;8.03;;;4.83;;
7142;SDS011;3613;48.902;9.204;2023-09-30T06:16:35;7.20;;;4.93;;
7142;SDS011;3613;48.902;9.204;2023-09-30T06:19:00;7.87;;;4.73;;
7142;SDS011;3613;48.902;9.204;2023-09-30T06:21:27;7.27;;;4.77;;
7142;SDS011;3613;48.902;9.204;2023-09-30T06:23:55;7.17;;;5.33;;
7142;SDS011;3613;48.902;9.204;2023-09-30T06:26:20;7.30;;;4.63;;
7142;SDS011;3613;48.902;9.204;2023-09-30T06:28:46;7.90;;;4.50;;
7142;SDS011;3613;48.902;9.204;2023-09-30T06:31:13;9.90;;;5.10;;
7142;SDS011;3613;48.902;9.204;2023-09-30T06:33:40;4.87;;;3.80;;
7142;SDS011;3613;48.902;9.204;2023-09-30T06:36:12;5.03;;;4.40;;
7142;SDS011;3613;48.902;9.204;2023-09-30T06:38:40;5.93;;;4.00;;
7142;SDS011;3613;48.902;9.204;2023-09-30T06:41:07;4.93;;;3.93;;
7142;SDS011;3613;48.902;9.204;2023-09-30T06:43:40;7.57;;;5.00;;
7142;SDS011;3613;48.902;9.204;2023-09-30T06:46:06;6.03;;;4.13;;
7142;SDS011;3613;48.902;9.204;2023-09-30T06:48:35;6.73;;;4.60;;
7142;SDS011;3613;48.902;9.204;2023-09-30T06:51:02;6.00;;;4.00;;
7142;SDS011;3613;48.902;9.204;2023-09-30T06:53:30;7.43;;;4.60;;
7142;SDS011;3613;48.902;9.204;2023-09-30T06:55:58;7.20;;;4.80;;
7142;SDS011;3613;48.902;9.204;2023-09-30T06:58:31;4.97;;;3.60;;
7142;SDS011;3613;48.902;9.204;2023-09-30T07:01:01;5.57;;;3.83;;
7142;SDS011;3613;48.902;9.204;2023-09-30T07:03:27;5.47;;;3.97;;
7142;SDS011;3613;48.902;9.204;2023-09-30T07:05:53;6.27;;;3.77;;
7142;SDS011;3613;48.902;9.204;2023-09-30T07:08:21;6.63;;;4.27;;
7142;SDS011;3613;48.902;9.204;2023-09-30T07:10:47;5.27;;;4.00;;
7142;SDS011;3613;48.902;9.204;2023-09-30T07:13:20;6.30;;;3.97;;
7142;SDS011;3613;48.902;9.204;2023-09-30T07:15:45;7.03;;;3.90;;
7142;SDS011;3613;48.902;9.204;2023-09-30T07:18:11;6.70;;;3.23;;
7142;SDS011;3613;48.902;9.204;2023-09-30T07:20:39;7.47;;;3.73;;
7142;SDS011;3613;48.902;9.204;2023-09-30T07:23:07;6.33;;;3.40;;
7142;SDS011;3613;48.902;9.204;2023-09-30T07:25:35;5.03;;;3.43;;
7142;SDS011;3613;48.902;9.204;2023-09-30T07:28:03;5.40;;;3.50;;
7142;SDS011;3613;48.902;9.204;2023-09-30T07:30:29;7.33;;;3.27;;
7142;SDS011;3613;48.902;9.204;2023-09-30T07:32:54;4.00;;;3.20;;
7142;SDS011;3613;48.902;9.204;2023-09-30T07:35:20;5.87;;;3.90;;
7142;SDS011;3613;48.902;9.204;2023-09-30T07:37:46;7.00;;;3.83;;
7142;SDS011;3613;48.902;9.204;2023-09-30T07:40:12;8.33;;;3.93;;
7142;SDS011;3613;48.902;9.204;2023-09-30T07:42:42;7.07;;;3.60;;
7142;SDS011;3613;48.902;9.204;2023-09-30T07:45:08;5.30;;;3.50;;
7142;SDS011;3613;48.902;9.204;2023-09-30T07:47:34;7.60;;;3.90;;
7142;SDS011;3613;48.902;9.204;2023-09-30T07:50:00;7.27;;;3.53;;
7142;SDS011;3613;48.902;9.204;2023-09-30T07:52:31;4.80;;;2.97;;
7142;SDS011;3613;48.902;9.204;2023-09-30T07:54:56;5.73;;;3.70;;
7142;SDS011;3613;48.902;9.204;2023-09-30T07:57:22;6.17;;;3.83;;
7142;SDS011;3613;48.902;9.204;2023-09-30T07:59:51;8.53;;;3.80;;
7142;SDS011;3613;48.902;9.204;2023-09-30T08:02:16;8.37;;;3.37;;
7142;SDS011;3613;48.902;9.204;2023-09-30T08:04:43;5.83;;;3.10;;
7142;SDS011;3613;48.902;9.204;2023-09-30T08:07:12;6.80;;;4.03;;
7142;SDS011;3613;48.902;9.204;2023-09-30T08:09:38;5.57;;;3.30;;
7142;SDS011;3613;48.902;9.204;2023-09-30T08:12:04;5.87;;;3.33;;
7142;SDS011;3613;48.902;9.204;2023-09-30T08:14:31;5.90;;;3.90;;
7142;SDS011;3613;48.902;9.204;2023-09-30T08:16:59;5.87;;;3.63;;
7142;SDS011;3613;48.902;9.204;2023-09-30T08:19:24;6.80;;;3.83;;
7142;SDS011;3613;48.902;9.204;2023-09-30T08:21:50;7.63;;;3.47;;
7142;SDS011;3613;48.902;9.204;2023-09-30T08:24:19;5.37;;;3.63;;
7142;SDS011;3613;48.902;9.204;2023-09-30T08:26:49;5.10;;;3.17;;
7142;SDS011;3613;48.902;9.204;2023-09-30T08:29:17;4.27;;;2.87;;
7142;SDS011;3613;48.902;9.204;2023-09-30T08:31:45;3.90;;;2.90;;
7142;SDS011;3613;48.902;9.204;2023-09-30T08:34:11;4.63;;;3.10;;
7142;SDS011;3613;48.902;9.204;2023-09-30T08:36:38;7.00;;;2.93;;
7142;SDS011;3613;48.902;9.204;2023-09-30T08:39:03;6.40;;;3.03;;
7142;SDS011;3613;48.902;9.204;2023-09-30T08:41:33;5.97;;;3.00;;
7142;SDS011;3613;48.902;9.204;2023-09-30T08:44:00;7.53;;;4.23;;
7142;SDS011;3613;48.902;9.204;2023-09-30T08:46:32;5.10;;;3.80;;
7142;SDS011;3613;48.902;9.204;2023-09-30T08:49:02;6.43;;;4.63;;
7142;SDS011;3613;48.902;9.204;2023-09-30T08:51:31;7.73;;;4.00;;
7142;SDS011;3613;48.902;9.204;2023-09-30T08:53:58;5.83;;;3.90;;
7142;SDS011;3613;48.902;9.204;2023-09-30T08:56:27;6.27;;;3.80;;
7142;SDS011;3613;48.902;9.204;2023-09-30T08:58:55;7.47;;;4.03;;
7142;SDS011;3613;48.902;9.204;2023-09-30T09:01:25;8.37;;;4.53;;
7142;SDS011;3613;48.902;9.204;2023-09-30T09:03:53;6.37;;;4.17;;
7142;SDS011;3613;48.902;9.204;2023-09-30T09:06:23;7.37;;;4.47;;
7142;SDS011;3613;48.902;9.204;2023-09-30T09:08:52;6.00;;;4.03;;
7142;SDS011;3613;48.902;9.204;2023-09-30T09:11:18;7.17;;;3.83;;
7142;SDS011;3613;48.902;9.204;2023-09-30T09:13:53;5.93;;;4.23;;
7142;SDS011;3613;48.902;9.204;2023-09-30T09:16:22;7.30;;;4.00;;
7142;SDS011;3613;48.902;9.204;2023-09-30T09:18:50;7.37;;;4.27;;
7142;SDS011;3613;48.902;9.204;2023-09-30T09:21:20;6.87;;;4.00;;
7142;SDS011;3613;48.902;9.204;2023-09-30T09:23:52;7.43;;;4.20;;
7142;SDS011;3613;48.902;9.204;2023-09-30T09:29:01;6.13;;;3.53;;
7142;SDS011;3613;48.902;9.204;2023-09-30T09:31:30;5.17;;;3.67;;
7142;SDS011;3613;48.902;9.204;2023-09-30T09:33:59;4.47;;;3.43;;
7142;SDS011;3613;48.902;9.204;2023-09-30T09:36:44;5.90;;;4.30;;
7142;SDS011;3613;48.902;9.204;2023-09-30T09:39:15;6.07;;;3.93;;
7142;SDS011;3613;48.902;9.204;2023-09-30T09:41:53;5.70;;;3.60;;
7142;SDS011;3613;48.902;9.204;2023-09-30T09:44:22;6.67;;;3.47;;
7142;SDS011;3613;48.902;9.204;2023-09-30T09:46:50;8.20;;;3.77;;
7142;SDS011;3613;48.902;9.204;2023-09-30T09:49:16;5.30;;;3.60;;
7142;SDS011;3613;48.902;9.204;2023-09-30T09:51:46;6.00;;;3.43;;
7142;SDS011;3613;48.902;9.204;2023-09-30T09:54:16;6.20;;;3.50;;
7142;SDS011;3613;48.902;9.204;2023-09-30T09:56:42;6.83;;;3.10;;
7142;SDS011;3613;48.902;9.204;2023-09-30T09:59:12;6.03;;;3.37;;
7142;SDS011;3613;48.902;9.204;2023-09-30T10:01:39;7.17;;;3.63;;
7142;SDS011;3613;48.902;9.204;2023-09-30T10:04:06;6.60;;;3.43;;
7142;SDS011;3613;48.902;9.204;2023-09-30T10:06:32;6.03;;;3.53;;
7142;SDS011;3613;48.902;9.204;2023-09-30T10:09:06;7.93;;;4.57;;
7142;SDS011;3613;48.902;9.204;2023-09-30T10:11:37;5.83;;;3.80;;
7142;SDS011;3613;48.902;9.204;2023-09-30T10:14:05;5.60;;;3.50;;
7142;SDS011;3613;48.902;9.204;2023-09-30T10:19:17;5.63;;;3.33;;
7142;SDS011;3613;48.902;9.204;2023-09-30T10:22:19;6.57;;;3.10;;
7142;SDS011;3613;48.902;9.204;2023-09-30T10:24:57;4.70;;;3.27;;
7142;SDS011;3613;48.902;9.204;2023-09-30T10:27:30;4.57;;;2.97;;
7142;SDS011;3613;48.902;9.204;2023-09-30T10:37:45;7.37;;;3.53;;
7142;SDS011;3613;48.902;9.204;2023-09-30T10:40:28;5.27;;;3.40;;
7142;SDS011;3613;48.902;9.204;2023-09-30T10:42:56;5.23;;;3.30;;
7142;SDS011;3613;48.902;9.204;2023-09-30T10:50:57;6.63;;;3.23;;
7142;SDS011;3613;48.902;9.204;2023-09-30T10:53:31;4.93;;;3.50;;
7142;SDS011;3613;48.902;9.204;2023-09-30T10:55:58;6.10;;;3.43;;
7142;SDS011;3613;48.902;9.204;2023-09-30T11:03:45;7.40;;;3.53;;
7142;SDS011;3613;48.902;9.204;2023-09-30T11:06:16;5.93;;;3.40;;
7142;SDS011;3613;48.902;9.204;2023-09-30T11:08:46;8.90;;;3.53;;
7142;SDS011;3613;48.902;9.204;2023-09-30T11:11:18;5.63;;;3.10;;
7142;SDS011;3613;48.902;9.204;2023-09-30T11:13:43;6.07;;;3.60;;
7142;SDS011;3613;48.902;9.204;2023-09-30T11:16:11;6.57;;;3.03;;
7142;SDS011;3613;48.902;9.204;2023-09-30T11:18:37;7.50;;;3.43;;
7142;SDS011;3613;48.902;9.204;2023-09-30T11:21:07;4.47;;;2.90;;
7142;SDS011;3613;48.902;9.204;2023-09-30T11:23:38;6.60;;;3.27;;
7142;SDS011;3613;48.902;9.204;2023-09-30T11:26:06;8.83;;;3.87;;
7142;SDS011;3613;48.902;9.204;2023-09-30T11:28:35;7.03;;;3.30;;
7142;SDS011;3613;48.902;9.204;2023-09-30T11:31:02;4.97;;;3.13;;
7142;SDS011;3613;48.902;9.204;2023-09-30T11:33:31;6.73;;;4.00;;
7142;SDS011;3613;48.902;9.204;2023-09-30T11:36:02;6.47;;;3.47;;
7142;SDS011;3613;48.902;9.204;2023-09-30T11:38:31;6.80;;;3.57;;
7142;SDS011;3613;48.902;9.204;2023-09-30T11:41:01;7.40;;;3.40;;
7142;SDS011;3613;48.902;9.204;2023-09-30T11:43:34;6.27;;;4.10;;
7142;SDS011;3613;48.902;9.204;2023-09-30T11:46:18;7.83;;;3.77;;
7142;SDS011;3613;48.902;9.204;2023-09-30T11:48:57;6.57;;;4.07;;
7142;SDS011;3613;48.902;9.204;2023-09-30T11:51:30;6.70;;;3.30;;
7142;SDS011;3613;48.902;9.204;2023-09-30T11:54:08;6.80;;;3.60;;
7142;SDS011;3613;48.902;9.204;2023-09-30T11:56:35;5.20;;;3.67;;
7142;SDS011;3613;48.902;9.204;2023-09-30T11:59:02;4.70;;;3.50;;
7142;SDS011;3613;48.902;9.204;2023-09-30T12:01:30;7.80;;;3.70;;
7142;SDS011;3613;48.902;9.204;2023-09-30T12:03:57;6.17;;;3.23;;
7142;SDS011;3613;48.902;9.204;2023-09-30T12:06:25;7.03;;;3.23;;
7142;SDS011;3613;48.902;9.204;2023-09-30T12:08:51;5.67;;;3.77;;
7142;SDS011;3613;48.902;9.204;2023-09-30T12:11:17;7.77;;;3.73;;
7142;SDS011;3613;48.902;9.204;2023-09-30T12:13:49;7.67;;;3.90;;
7142;SDS011;3613;48.902;9.204;2023-09-30T12:16:15;7.63;;;4.20;;
7142;SDS011;3613;48.902;9.204;2023-09-30T12:18:41;7.17;;;4.17;;
7142;SDS011;3613;48.902;9.204;2023-09-30T12:21:10;6.37;;;3.57;;
7142;SDS011;3613;48.902;9.204;2023-09-30T12:23:38;7.03;;;3.60;;
7142;SDS011;3613;48.902;9.204;2023-09-30T12:26:08;8.93;;;3.80;;
7142;SDS011;3613;48.902;9.204;2023-09-30T12:28:36;7.23;;;3.73;;
7142;SDS011;3613;48.902;9.204;2023-09-30T12:31:02;6.83;;;3.67;;
7142;SDS011;3613;48.902;9.204;2023-09-30T12:33:30;5.87;;;3.20;;
7142;SDS011;3613;48.902;9.204;2023-09-30T12:35:57;7.20;;;3.90;;
7142;SDS011;3613;48.902;9.204;2023-09-30T12:38:24;6.70;;;3.63;;
7142;SDS011;3613;48.902;9.204;2023-09-30T12:40:52;6.60;;;3.20;;
7142;SDS011;3613;48.902;9.204;2023-09-30T12:43:18;6.17;;;3.40;;
7142;SDS011;3613;48.902;9.204;2023-09-30T12:45:45;5.90;;;3.67;;
7142;SDS011;3613;48.902;9.204;2023-09-30T12:48:11;6.40;;;4.33;;
7142;SDS011;3613;48.902;9.204;2023-09-30T12:50:36;7.93;;;4.10;;
7142;SDS011;3613;48.902;9.204;2023-09-30T12:53:06;7.43;;;3.90;;
7142;SDS011;3613;48.902;9.204;2023-09-30T12:55:35;6.57;;;3.60;;
7142;SDS011;3613;48.902;9.204;2023-09-30T12:58:00;8.77;;;3.87;;
7142;SDS011;3613;48.902;9.204;2023-09-30T13:00:26;6.47;;;3.67;;
7142;SDS011;3613;48.902;9.204;2023-09-30T13:02:55;6.33;;;3.70;;
7142;SDS011;3613;48.902;9.204;2023-09-30T13:05:21;9.00;;;3.50;;
7142;SDS011;3613;48.902;9.204;2023-09-30T13:07:49;7.93;;;4.03;;
7142;SDS011;3613;48.902;9.204;2023-09-30T13:10:15;6.33;;;3.50;;
7142;SDS011;3613;48.902;9.204;2023-09-30T13:12:41;7.17;;;3.80;;
7142;SDS011;3613;48.902;9.204;2023-09-30T13:15:06;8.60;;;4.03;;
7142;SDS011;3613;48.902;9.204;2023-09-30T13:17:34;8.57;;;4.63;;
7142;SDS011;3613;48.902;9.204;2023-09-30T13:20:02;7.93;;;4.40;;
7142;SDS011;3613;48.902;9.204;2023-09-30T13:22:30;6.07;;;3.70;;
7142;SDS011;3613;48.902;9.204;2023-09-30T13:24:56;6.53;;;3.83;;
7142;SDS011;3613;48.902;9.204;2023-09-30T13:27:25;8.67;;;3.97;;
7142;SDS011;3613;48.902;9.204;2023-09-30T13:29:53;6.27;;;3.70;;
7142;SDS011;3613;48.902;9.204;2023-09-30T13:32:25;6.40;;;3.50;;
7142;SDS011;3613;48.902;9.204;2023-09-30T13:34:53;6.47;;;3.60;;
7142;SDS011;3613;48.902;9.204;2023-09-30T13:37:19;7.17;;;3.83;;
7142;SDS011;3613;48.902;9.204;2023-09-30T13:39:45;5.40;;;3.30;;
7142;SDS011;3613;48.902;9.204;2023-09-30T13:42:15;6.07;;;3.40;;
7142;SDS011;3613;48.902;9.204;2023-09-30T13:44:40;8.40;;;4.30;;
7142;SDS011;3613;48.902;9.204;2023-09-30T13:47:06;8.67;;;3.50;;
7142;SDS011;3613;48.902;9.204;2023-09-30T13:49:33;7.83;;;3.70;;
7142;SDS011;3613;48.902;9.204;2023-09-30T13:51:58;7.77;;;3.83;;
7142;SDS011;3613;48.902;9.204;2023-09-30T13:54:26;8.13;;;4.10;;
7142;SDS011;3613;48.902;9.204;2023-09-30T13:56:55;7.40;;;3.77;;
7142;SDS011;3613;48.902;9.204;2023-09-30T13:59:23;7.23;;;3.90;;
7142;SDS011;3613;48.902;9.204;2023-09-30T14:01:52;7.13;;;3.83;;
7142;SDS011;3613;48.902;9.204;2023-09-30T14:04:18;8.03;;;3.87;;
7142;SDS011;3613;48.902;9.204;2023-09-30T14:06:43;5.60;;;3.40;;
7142;SDS011;3613;48.902;9.204;2023-09-30T14:09:09;6.57;;;3.47;;
7142;SDS011;3613;48.902;9.204;2023-09-30T14:11:40;10.27;;;3.90;;
7142;SDS011;3613;48.902;9.204;2023-09-30T14:14:06;10.10;;;4.10;;
7142;SDS011;3613;48.902;9.204;2023-09-30T14:16:35;7.30;;;3.53;;
7142;SDS011;3613;48.902;9.204;2023-09-30T14:19:03;6.20;;;3.63;;
7142;SDS011;3613;48.902;9.204;2023-09-30T14:21:29;6.33;;;3.50;;
7142;SDS011;3613;48.902;9.204;2023-09-30T14:23:57;5.63;;;3.23;;
7142;SDS011;3613;48.902;9.204;2023-09-30T14:26:22;7.80;;;3.80;;
7142;SDS011;3613;48.902;9.204;2023-09-30T14:28:48;7.27;;;4.40;;
7142;SDS011;3613;48.902;9.204;2023-09-30T14:31:14;7.37;;;4.30;;
7142;SDS011;3613;48.902;9.204;2023-09-30T14:33:39;6.23;;;3.97;;
7142;SDS011;3613;48.902;9.204;2023-09-30T14:36:07;6.60;;;3.70;;
7142;SDS011;3613;48.902;9.204;2023-09-30T14:38:33;9.20;;;3.97;;
7142;SDS011;3613;48.902;9.204;2023-09-30T14:41:01;8.00;;;3.63;;
7142;SDS011;3613;48.902;9.204;2023-09-30T14:43:28;8.13;;;4.80;;
7142;SDS011;3613;48.902;9.204;2023-09-30T14:46:00;7.13;;;3.77;;
7142;SDS011;3613;48.902;9.204;2023-09-30T14:48:28;8.17;;;4.00;;
7142;SDS011;3613;48.902;9.204;2023-09-30T14:50:54;7.67;;;4.23;;
7142;SDS011;3613;48.902;9.204;2023-09-30T14:53:20;6.77;;;3.27;;
7142;SDS011;3613;48.902;9.204;2023-09-30T14:55:46;6.17;;;3.50;;
7142;SDS011;3613;48.902;9.204;2023-09-30T14:58:12;8.23;;;4.00;;
7142;SDS011;3613;48.902;9.204;2023-09-30T15:00:40;6.13;;;3.90;;
7142;SDS011;3613;48.902;9.204;2023-09-30T15:03:06;9.30;;;4.17;;
7142;SDS011;3613;48.902;9.204;2023-09-30T15:05:32;9.00;;;4.37;;
7142;SDS011;3613;48.902;9.204;2023-09-30T15:07:58;8.20;;;4.30;;
7142;SDS011;3613;48.902;9.204;2023-09-30T15:10:26;8.03;;;3.70;;
7142;SDS011;3613;48.902;9.204;2023-09-30T15:12:52;6.40;;;3.53;;
7142;SDS011;3613;48.902;9.204;2023-09-30T15:15:18;6.40;;;3.73;;
7142;SDS011;3613;48.902;9.204;2023-09-30T15:17:44;7.30;;;4.30;;
7142;SDS011;3613;48.902;9.204;2023-09-30T15:20:09;8.07;;;3.90;;
7142;SDS011;3613;48.902;9.204;2023-09-30T15:22:38;8.07;;;4.10;;
7142;SDS011;3613;48.902;9.204;2023-09-30T15:25:10;9.13;;;4.63;;
7142;SDS011;3613;48.902;9.204;2023-09-30T15:27:35;9.27;;;5.00;;
7142;SDS011;3613;48.902;9.204;2023-09-30T15:30:01;7.00;;;3.70;;
7142;SDS011;3613;48.902;9.204;2023-09-30T15:32:28;8.27;;;3.83;;
7142;SDS011;3613;48.902;9.204;2023-09-30T15:34:54;6.40;;;3.90;;
7142;SDS011;3613;48.902;9.204;2023-09-30T15:37:19;6.97;;;3.67;;
7142;SDS011;3613;48.902;9.204;2023-09-30T15:39:45;9.07;;;4.30;;
7142;SDS011;3613;48.902;9.204;2023-09-30T15:42:12;7.67;;;3.90;;